sensor_id;sensor_type;location;lat;lon;timestamp;pressure;altitude;pressure_sealevel;temperature
24201;BMP280;2801;50.972;7.856;2023-05-07T00:02:00;97614.00;;;14.53
24201;BMP280;2801;50.972;7.856;2023-05-07T00:04:27;97615.13;;;14.52
24201;BMP280;2801;50.972;7.856;2023-05-07T00:06:55;97607.81;;;14.52
24201;BMP280;2801;50.972;7.856;2023-05-07T00:09:22;97608.25;;;14.54
24201;BMP280;2801;50.972;7.856;2023-05-07T00:11:49;97607.56;;;14.57
24201;BMP280;2801;50.972;7.856;2023-05-07T00:14:16;97616.56;;;14.61
24201;BMP280;2801;50.972;7.856;2023-05-07T00:16:43;97612.25;;;14.60
24201;BMP280;2801;50.972;7.856;2023-05-07T00:19:09;97609.47;;;14.57
24201;BMP280;2801;50.972;7.856;2023-05-07T00:21:37;97600.59;;;14.56
24201;BMP280;2801;50.972;7.856;2023-05-07T00:24:04;97604.34;;;14.52
24201;BMP280;2801;50.972;7.856;2023-05-07T00:26:31;97592.91;;;14.43
24201;BMP280;2801;50.972;7.856;2023-05-07T00:28:58;97594.31;;;14.52
24201;BMP280;2801;50.972;7.856;2023-05-07T00:31:25;97595.19;;;14.56
24201;BMP280;2801;50.972;7.856;2023-05-07T00:33:52;97595.13;;;14.53
24201;BMP280;2801;50.972;7.856;2023-05-07T00:36:19;97596.94;;;14.49
24201;BMP280;2801;50.972;7.856;2023-05-07T00:38:46;97597.69;;;14.49
24201;BMP280;2801;50.972;7.856;2023-05-07T00:41:13;97599.28;;;14.50
24201;BMP280;2801;50.972;7.856;2023-05-07T00:43:39;97597.81;;;14.53
24201;BMP280;2801;50.972;7.856;2023-05-07T00:46:06;97574.13;;;14.46
24201;BMP280;2801;50.972;7.856;2023-05-07T00:48:33;97592.75;;;14.51
24201;BMP280;2801;50.972;7.856;2023-05-07T00:51:00;97585.13;;;14.53
24201;BMP280;2801;50.972;7.856;2023-05-07T00:53:27;97590.50;;;14.53
24201;BMP280;2801;50.972;7.856;2023-05-07T00:55:56;97586.22;;;14.52
24201;BMP280;2801;50.972;7.856;2023-05-07T00:58:24;97592.41;;;14.53
24201;BMP280;2801;50.972;7.856;2023-05-07T01:00:51;97587.91;;;14.57
24201;BMP280;2801;50.972;7.856;2023-05-07T01:03:18;97584.06;;;14.58
24201;BMP280;2801;50.972;7.856;2023-05-07T01:05:48;97585.66;;;14.59
24201;BMP280;2801;50.972;7.856;2023-05-07T01:08:17;97586.75;;;14.58
24201;BMP280;2801;50.972;7.856;2023-05-07T01:10:45;97589.47;;;14.58
24201;BMP280;2801;50.972;7.856;2023-05-07T01:13:14;97582.16;;;14.58
24201;BMP280;2801;50.972;7.856;2023-05-07T01:15:43;97581.13;;;14.63
24201;BMP280;2801;50.972;7.856;2023-05-07T01:18:10;97587.41;;;14.67
24201;BMP280;2801;50.972;7.856;2023-05-07T01:20:37;97579.38;;;14.70
24201;BMP280;2801;50.972;7.856;2023-05-07T01:23:06;97578.19;;;14.68
24201;BMP280;2801;50.972;7.856;2023-05-07T01:25:34;97578.97;;;14.68
24201;BMP280;2801;50.972;7.856;2023-05-07T01:28:01;97583.22;;;14.69
24201;BMP280;2801;50.972;7.856;2023-05-07T01:30:30;97582.78;;;14.67
24201;BMP280;2801;50.972;7.856;2023-05-07T01:33:04;97585.94;;;14.69
24201;BMP280;2801;50.972;7.856;2023-05-07T01:35:38;97586.28;;;14.68
24201;BMP280;2801;50.972;7.856;2023-05-07T01:38:08;97582.00;;;14.67
24201;BMP280;2801;50.972;7.856;2023-05-07T01:40:35;97581.22;;;14.66
24201;BMP280;2801;50.972;7.856;2023-05-07T01:43:05;97570.69;;;14.61
24201;BMP280;2801;50.972;7.856;2023-05-07T01:45:34;97577.72;;;14.66
24201;BMP280;2801;50.972;7.856;2023-05-07T01:48:03;97586.94;;;14.65
24201;BMP280;2801;50.972;7.856;2023-05-07T01:50:31;97577.38;;;14.67
24201;BMP280;2801;50.972;7.856;2023-05-07T01:52:58;97577.31;;;14.64
24201;BMP280;2801;50.972;7.856;2023-05-07T01:55:26;97577.19;;;14.60
24201;BMP280;2801;50.972;7.856;2023-05-07T01:57:53;97574.41;;;14.57
24201;BMP280;2801;50.972;7.856;2023-05-07T02:00:20;97575.56;;;14.56
24201;BMP280;2801;50.972;7.856;2023-05-07T02:02:47;97585.19;;;14.57
24201;BMP280;2801;50.972;7.856;2023-05-07T02:05:14;97582.50;;;14.57
24201;BMP280;2801;50.972;7.856;2023-05-07T02:07:41;97592.41;;;14.53
24201;BMP280;2801;50.972;7.856;2023-05-07T02:10:08;97582.66;;;14.48
24201;BMP280;2801;50.972;7.856;2023-05-07T02:12:35;97575.84;;;14.39
24201;BMP280;2801;50.972;7.856;2023-05-07T02:15:03;97575.56;;;14.28
24201;BMP280;2801;50.972;7.856;2023-05-07T02:17:30;97581.75;;;14.29
24201;BMP280;2801;50.972;7.856;2023-05-07T02:19:58;97581.41;;;14.18
24201;BMP280;2801;50.972;7.856;2023-05-07T02:22:26;97586.97;;;14.10
24201;BMP280;2801;50.972;7.856;2023-05-07T02:24:53;97588.06;;;14.09
24201;BMP280;2801;50.972;7.856;2023-05-07T02:27:20;97581.19;;;14.11
24201;BMP280;2801;50.972;7.856;2023-05-07T02:29:46;97585.81;;;14.11
24201;BMP280;2801;50.972;7.856;2023-05-07T02:32:13;97581.13;;;14.08
24201;BMP280;2801;50.972;7.856;2023-05-07T02:34:40;97578.06;;;14.09
24201;BMP280;2801;50.972;7.856;2023-05-07T02:37:07;97583.13;;;14.11
24201;BMP280;2801;50.972;7.856;2023-05-07T02:39:34;97585.81;;;14.11
24201;BMP280;2801;50.972;7.856;2023-05-07T02:42:01;97591.66;;;14.13
24201;BMP280;2801;50.972;7.856;2023-05-07T02:44:28;97589.75;;;14.13
24201;BMP280;2801;50.972;7.856;2023-05-07T02:46:58;97588.53;;;14.11
24201;BMP280;2801;50.972;7.856;2023-05-07T02:49:25;97585.03;;;14.10
24201;BMP280;2801;50.972;7.856;2023-05-07T02:51:51;97585.81;;;14.11
24201;BMP280;2801;50.972;7.856;2023-05-07T02:54:18;97582.78;;;14.12
24201;BMP280;2801;50.972;7.856;2023-05-07T02:56:45;97574.69;;;14.12
24201;BMP280;2801;50.972;7.856;2023-05-07T02:59:12;97584.34;;;14.13
24201;BMP280;2801;50.972;7.856;2023-05-07T03:01:39;97570.28;;;14.20
24201;BMP280;2801;50.972;7.856;2023-05-07T03:04:06;97576.94;;;14.22
24201;BMP280;2801;50.972;7.856;2023-05-07T03:06:33;97571.53;;;14.22
24201;BMP280;2801;50.972;7.856;2023-05-07T03:09:00;97576.69;;;14.27
24201;BMP280;2801;50.972;7.856;2023-05-07T03:11:27;97574.44;;;14.29
24201;BMP280;2801;50.972;7.856;2023-05-07T03:13:53;97573.75;;;14.32
24201;BMP280;2801;50.972;7.856;2023-05-07T03:16:20;97561.81;;;14.33
24201;BMP280;2801;50.972;7.856;2023-05-07T03:18:48;97559.13;;;14.33
24201;BMP280;2801;50.972;7.856;2023-05-07T03:21:15;97562.97;;;14.32
24201;BMP280;2801;50.972;7.856;2023-05-07T03:23:41;97570.03;;;14.37
24201;BMP280;2801;50.972;7.856;2023-05-07T03:26:08;97567.31;;;14.37
24201;BMP280;2801;50.972;7.856;2023-05-07T03:28:36;97566.19;;;14.38
24201;BMP280;2801;50.972;7.856;2023-05-07T03:31:03;97558.44;;;14.36
24201;BMP280;2801;50.972;7.856;2023-05-07T03:33:33;97568.09;;;14.37
24201;BMP280;2801;50.972;7.856;2023-05-07T03:36:01;97553.66;;;14.30
24201;BMP280;2801;50.972;7.856;2023-05-07T03:38:27;97562.69;;;14.37
24201;BMP280;2801;50.972;7.856;2023-05-07T03:40:54;97560.34;;;14.36
24201;BMP280;2801;50.972;7.856;2023-05-07T03:43:21;97567.22;;;14.33
24201;BMP280;2801;50.972;7.856;2023-05-07T03:45:48;97566.44;;;14.33
24201;BMP280;2801;50.972;7.856;2023-05-07T03:48:15;97564.84;;;14.32
24201;BMP280;2801;50.972;7.856;2023-05-07T03:50:42;97557.47;;;14.29
24201;BMP280;2801;50.972;7.856;2023-05-07T03:53:09;97554.59;;;14.22
24201;BMP280;2801;50.972;7.856;2023-05-07T03:55:36;97571.84;;;14.21
24201;BMP280;2801;50.972;7.856;2023-05-07T03:58:03;97566.44;;;14.21
24201;BMP280;2801;50.972;7.856;2023-05-07T04:00:30;97572.56;;;14.18
24201;BMP280;2801;50.972;7.856;2023-05-07T04:03:00;97573.22;;;14.15
24201;BMP280;2801;50.972;7.856;2023-05-07T04:05:27;97580.97;;;14.16
24201;BMP280;2801;50.972;7.856;2023-05-07T04:07:54;97579.06;;;14.17
24201;BMP280;2801;50.972;7.856;2023-05-07T04:10:21;97581.06;;;14.20
24201;BMP280;2801;50.972;7.856;2023-05-07T04:12:48;97577.06;;;14.14
24201;BMP280;2801;50.972;7.856;2023-05-07T04:15:15;97579.75;;;14.14
24201;BMP280;2801;50.972;7.856;2023-05-07T04:17:42;97576.28;;;14.13
24201;BMP280;2801;50.972;7.856;2023-05-07T04:20:14;97586.03;;;14.18
24201;BMP280;2801;50.972;7.856;2023-05-07T04:22:42;97584.91;;;14.19
24201;BMP280;2801;50.972;7.856;2023-05-07T04:25:09;97583.75;;;14.20
24201;BMP280;2801;50.972;7.856;2023-05-07T04:27:36;97582.78;;;14.24
24201;BMP280;2801;50.972;7.856;2023-05-07T04:30:05;97588.69;;;14.30
24201;BMP280;2801;50.972;7.856;2023-05-07T04:32:33;97579.28;;;14.24
24201;BMP280;2801;50.972;7.856;2023-05-07T04:34:59;97584.63;;;14.36
24201;BMP280;2801;50.972;7.856;2023-05-07T04:37:26;97580.81;;;14.37
24201;BMP280;2801;50.972;7.856;2023-05-07T04:39:53;97583.94;;;14.39
24201;BMP280;2801;50.972;7.856;2023-05-07T04:42:20;97581.34;;;14.42
24201;BMP280;2801;50.972;7.856;2023-05-07T04:44:47;97568.88;;;14.38
24201;BMP280;2801;50.972;7.856;2023-05-07T04:47:14;97585.47;;;14.52
24201;BMP280;2801;50.972;7.856;2023-05-07T04:49:41;97584.50;;;14.60
24201;BMP280;2801;50.972;7.856;2023-05-07T04:52:08;97580.41;;;14.66
24201;BMP280;2801;50.972;7.856;2023-05-07T04:54:35;97582.53;;;14.73
24201;BMP280;2801;50.972;7.856;2023-05-07T04:57:04;97585.31;;;14.76
24201;BMP280;2801;50.972;7.856;2023-05-07T04:59:32;97581.06;;;14.75
24201;BMP280;2801;50.972;7.856;2023-05-07T05:01:59;97587.00;;;14.81
24201;BMP280;2801;50.972;7.856;2023-05-07T05:04:26;97578.69;;;14.73
24201;BMP280;2801;50.972;7.856;2023-05-07T05:06:53;97594.81;;;14.86
24201;BMP280;2801;50.972;7.856;2023-05-07T05:09:20;97595.34;;;14.91
24201;BMP280;2801;50.972;7.856;2023-05-07T05:11:47;97591.97;;;14.94
24201;BMP280;2801;50.972;7.856;2023-05-07T05:14:14;97597.53;;;15.01
24201;BMP280;2801;50.972;7.856;2023-05-07T05:16:41;97605.81;;;15.08
24201;BMP280;2801;50.972;7.856;2023-05-07T05:19:08;97599.47;;;15.16
24201;BMP280;2801;50.972;7.856;2023-05-07T05:21:35;97603.91;;;15.24
24201;BMP280;2801;50.972;7.856;2023-05-07T05:24:02;97604.41;;;15.30
24201;BMP280;2801;50.972;7.856;2023-05-07T05:26:29;97601.03;;;15.33
24201;BMP280;2801;50.972;7.856;2023-05-07T05:28:55;97601.13;;;15.36
24201;BMP280;2801;50.972;7.856;2023-05-07T05:31:22;97606.53;;;15.36
24201;BMP280;2801;50.972;7.856;2023-05-07T05:33:49;97605.56;;;15.44
24201;BMP280;2801;50.972;7.856;2023-05-07T05:36:16;97604.59;;;15.52
24201;BMP280;2801;50.972;7.856;2023-05-07T05:38:43;97597.69;;;15.55
24201;BMP280;2801;50.972;7.856;2023-05-07T05:41:11;97604.56;;;15.68
24201;BMP280;2801;50.972;7.856;2023-05-07T05:43:37;97607.44;;;15.75
24201;BMP280;2801;50.972;7.856;2023-05-07T05:46:04;97607.09;;;15.76
24201;BMP280;2801;50.972;7.856;2023-05-07T05:48:31;97606.63;;;15.74
24201;BMP280;2801;50.972;7.856;2023-05-07T05:50:58;97607.84;;;15.77
24201;BMP280;2801;50.972;7.856;2023-05-07T05:53:25;97623.31;;;15.76
24201;BMP280;2801;50.972;7.856;2023-05-07T05:55:52;97598.81;;;15.69
24201;BMP280;2801;50.972;7.856;2023-05-07T05:58:19;97608.88;;;15.88
24201;BMP280;2801;50.972;7.856;2023-05-07T06:00:46;97611.88;;;16.02
24201;BMP280;2801;50.972;7.856;2023-05-07T06:03:15;97622.38;;;16.22
24201;BMP280;2801;50.972;7.856;2023-05-07T06:05:41;97609.25;;;16.24
24201;BMP280;2801;50.972;7.856;2023-05-07T06:08:08;97618.31;;;16.32
24201;BMP280;2801;50.972;7.856;2023-05-07T06:10:37;97611.22;;;16.43
24201;BMP280;2801;50.972;7.856;2023-05-07T06:13:04;97616.88;;;16.57
24201;BMP280;2801;50.972;7.856;2023-05-07T06:15:31;97598.81;;;16.61
24201;BMP280;2801;50.972;7.856;2023-05-07T06:17:57;97617.34;;;16.81
24201;BMP280;2801;50.972;7.856;2023-05-07T06:20:24;97606.59;;;16.85
24201;BMP280;2801;50.972;7.856;2023-05-07T06:22:51;97611.38;;;16.91
24201;BMP280;2801;50.972;7.856;2023-05-07T06:25:18;97616.91;;;16.98
24201;BMP280;2801;50.972;7.856;2023-05-07T06:27:45;97615.47;;;17.04
24201;BMP280;2801;50.972;7.856;2023-05-07T06:30:12;97619.91;;;17.16
24201;BMP280;2801;50.972;7.856;2023-05-07T06:32:41;97619.19;;;17.19
24201;BMP280;2801;50.972;7.856;2023-05-07T06:35:08;97616.25;;;17.27
24201;BMP280;2801;50.972;7.856;2023-05-07T06:37:35;97614.63;;;17.45
24201;BMP280;2801;50.972;7.856;2023-05-07T06:40:06;97611.94;;;17.71
24201;BMP280;2801;50.972;7.856;2023-05-07T06:42:35;97605.41;;;18.02
24201;BMP280;2801;50.972;7.856;2023-05-07T06:45:03;97606.31;;;18.43
24201;BMP280;2801;50.972;7.856;2023-05-07T06:47:30;97615.34;;;18.83
24201;BMP280;2801;50.972;7.856;2023-05-07T06:49:57;97622.97;;;19.11
24201;BMP280;2801;50.972;7.856;2023-05-07T06:52:24;97605.56;;;19.19
24201;BMP280;2801;50.972;7.856;2023-05-07T06:54:54;97636.53;;;19.11
24201;BMP280;2801;50.972;7.856;2023-05-07T06:57:21;97629.16;;;19.08
24201;BMP280;2801;50.972;7.856;2023-05-07T06:59:48;97630.59;;;18.98
24201;BMP280;2801;50.972;7.856;2023-05-07T07:02:15;97637.25;;;19.04
24201;BMP280;2801;50.972;7.856;2023-05-07T07:04:44;97637.34;;;19.11
24201;BMP280;2801;50.972;7.856;2023-05-07T07:07:12;97636.97;;;19.16
24201;BMP280;2801;50.972;7.856;2023-05-07T07:09:38;97630.22;;;19.36
24201;BMP280;2801;50.972;7.856;2023-05-07T07:12:05;97630.00;;;19.55
24201;BMP280;2801;50.972;7.856;2023-05-07T07:14:32;97623.03;;;19.61
24201;BMP280;2801;50.972;7.856;2023-05-07T07:16:59;97625.84;;;19.72
24201;BMP280;2801;50.972;7.856;2023-05-07T07:19:26;97629.69;;;19.71
24201;BMP280;2801;50.972;7.856;2023-05-07T07:21:53;97627.72;;;19.61
24201;BMP280;2801;50.972;7.856;2023-05-07T07:24:20;97616.72;;;19.47
24201;BMP280;2801;50.972;7.856;2023-05-07T07:26:48;97625.31;;;19.56
24201;BMP280;2801;50.972;7.856;2023-05-07T07:29:15;97625.44;;;19.73
24201;BMP280;2801;50.972;7.856;2023-05-07T07:31:42;97609.25;;;19.91
24201;BMP280;2801;50.972;7.856;2023-05-07T07:34:09;97616.38;;;20.13
24201;BMP280;2801;50.972;7.856;2023-05-07T07:36:36;97616.84;;;20.22
24201;BMP280;2801;50.972;7.856;2023-05-07T07:39:12;97615.66;;;20.19
24201;BMP280;2801;50.972;7.856;2023-05-07T07:41:39;97613.78;;;20.37
24201;BMP280;2801;50.972;7.856;2023-05-07T07:44:06;97610.81;;;20.77
24201;BMP280;2801;50.972;7.856;2023-05-07T07:46:35;97610.53;;;21.17
24201;BMP280;2801;50.972;7.856;2023-05-07T07:49:02;97616.41;;;21.58
24201;BMP280;2801;50.972;7.856;2023-05-07T07:51:29;97612.09;;;21.92
24201;BMP280;2801;50.972;7.856;2023-05-07T07:53:57;97618.25;;;22.28
24201;BMP280;2801;50.972;7.856;2023-05-07T07:56:24;97621.78;;;22.21
24201;BMP280;2801;50.972;7.856;2023-05-07T07:58:51;97618.25;;;22.28
24201;BMP280;2801;50.972;7.856;2023-05-07T08:01:18;97623.34;;;22.15
24201;BMP280;2801;50.972;7.856;2023-05-07T08:03:46;97615.22;;;21.80
24201;BMP280;2801;50.972;7.856;2023-05-07T08:06:14;97630.44;;;21.74
24201;BMP280;2801;50.972;7.856;2023-05-07T08:08:41;97630.78;;;21.90
24201;BMP280;2801;50.972;7.856;2023-05-07T08:11:07;97628.84;;;21.91
24201;BMP280;2801;50.972;7.856;2023-05-07T08:13:35;97630.41;;;22.02
24201;BMP280;2801;50.972;7.856;2023-05-07T08:16:03;97636.63;;;22.10
24201;BMP280;2801;50.972;7.856;2023-05-07T08:18:30;97633.09;;;22.16
24201;BMP280;2801;50.972;7.856;2023-05-07T08:20:57;97619.41;;;22.23
24201;BMP280;2801;50.972;7.856;2023-05-07T08:23:23;97619.38;;;22.34
24201;BMP280;2801;50.972;7.856;2023-05-07T08:25:50;97612.31;;;22.50
24201;BMP280;2801;50.972;7.856;2023-05-07T08:28:17;97613.81;;;22.69
24201;BMP280;2801;50.972;7.856;2023-05-07T08:30:46;97616.50;;;22.72
24201;BMP280;2801;50.972;7.856;2023-05-07T08:33:13;97611.34;;;22.92
24201;BMP280;2801;50.972;7.856;2023-05-07T08:35:40;97609.94;;;23.31
24201;BMP280;2801;50.972;7.856;2023-05-07T08:38:07;97611.72;;;23.48
24201;BMP280;2801;50.972;7.856;2023-05-07T08:40:38;97616.69;;;23.64
24201;BMP280;2801;50.972;7.856;2023-05-07T08:43:07;97600.69;;;23.62
24201;BMP280;2801;50.972;7.856;2023-05-07T08:45:35;97609.53;;;23.77
24201;BMP280;2801;50.972;7.856;2023-05-07T08:48:05;97606.50;;;23.68
24201;BMP280;2801;50.972;7.856;2023-05-07T08:50:38;97602.78;;;23.88
24201;BMP280;2801;50.972;7.856;2023-05-07T08:53:05;97609.16;;;24.15
24201;BMP280;2801;50.972;7.856;2023-05-07T08:55:32;97603.94;;;23.94
24201;BMP280;2801;50.972;7.856;2023-05-07T08:58:00;97617.25;;;23.89
24201;BMP280;2801;50.972;7.856;2023-05-07T09:00:30;97617.22;;;23.96
24201;BMP280;2801;50.972;7.856;2023-05-07T09:03:00;97618.59;;;24.14
24201;BMP280;2801;50.972;7.856;2023-05-07T09:05:27;97624.75;;;24.22
24201;BMP280;2801;50.972;7.856;2023-05-07T09:07:54;97614.91;;;24.28
24201;BMP280;2801;50.972;7.856;2023-05-07T09:10:24;97617.97;;;24.33
24201;BMP280;2801;50.972;7.856;2023-05-07T09:12:52;97605.97;;;24.54
24201;BMP280;2801;50.972;7.856;2023-05-07T09:15:20;97614.91;;;24.61
24201;BMP280;2801;50.972;7.856;2023-05-07T09:17:47;97611.78;;;24.59
24201;BMP280;2801;50.972;7.856;2023-05-07T09:20:14;97611.78;;;24.26
24201;BMP280;2801;50.972;7.856;2023-05-07T09:22:41;97611.78;;;24.26
24201;BMP280;2801;50.972;7.856;2023-05-07T09:25:08;97603.78;;;24.42
24201;BMP280;2801;50.972;7.856;2023-05-07T09:27:36;97608.63;;;24.64
24201;BMP280;2801;50.972;7.856;2023-05-07T09:30:12;97600.16;;;24.82
24201;BMP280;2801;50.972;7.856;2023-05-07T09:32:39;97604.94;;;25.05
24201;BMP280;2801;50.972;7.856;2023-05-07T09:35:15;97594.59;;;25.16
24201;BMP280;2801;50.972;7.856;2023-05-07T09:37:48;97594.56;;;25.42
24201;BMP280;2801;50.972;7.856;2023-05-07T09:40:24;97596.69;;;25.58
24201;BMP280;2801;50.972;7.856;2023-05-07T09:42:51;97595.78;;;25.64
24201;BMP280;2801;50.972;7.856;2023-05-07T09:45:28;97592.50;;;25.50
24201;BMP280;2801;50.972;7.856;2023-05-07T09:47:58;97591.72;;;25.23
24201;BMP280;2801;50.972;7.856;2023-05-07T09:50:28;97587.75;;;25.01
24201;BMP280;2801;50.972;7.856;2023-05-07T09:52:56;97587.28;;;25.06
24201;BMP280;2801;50.972;7.856;2023-05-07T09:55:24;97596.38;;;25.26
24201;BMP280;2801;50.972;7.856;2023-05-07T09:57:53;97585.31;;;25.33
24201;BMP280;2801;50.972;7.856;2023-05-07T10:00:21;97591.94;;;25.35
24201;BMP280;2801;50.972;7.856;2023-05-07T10:02:52;97589.34;;;25.51
24201;BMP280;2801;50.972;7.856;2023-05-07T10:05:19;97589.94;;;25.62
24201;BMP280;2801;50.972;7.856;2023-05-07T10:07:50;97586.88;;;25.80
24201;BMP280;2801;50.972;7.856;2023-05-07T10:10:17;97587.22;;;26.05
24201;BMP280;2801;50.972;7.856;2023-05-07T10:12:45;97583.78;;;26.40
24201;BMP280;2801;50.972;7.856;2023-05-07T10:15:13;97584.91;;;26.42
24201;BMP280;2801;50.972;7.856;2023-05-07T10:17:41;97583.22;;;26.29
24201;BMP280;2801;50.972;7.856;2023-05-07T10:20:08;97598.34;;;26.17
24201;BMP280;2801;50.972;7.856;2023-05-07T10:22:43;97583.75;;;26.01
24201;BMP280;2801;50.972;7.856;2023-05-07T10:25:20;97585.59;;;25.84
24201;BMP280;2801;50.972;7.856;2023-05-07T10:27:49;97590.34;;;25.84
24201;BMP280;2801;50.972;7.856;2023-05-07T10:31:10;97580.84;;;25.88
24201;BMP280;2801;50.972;7.856;2023-05-07T10:33:44;97575.59;;;25.97
24201;BMP280;2801;50.972;7.856;2023-05-07T10:36:13;97577.97;;;25.95
24201;BMP280;2801;50.972;7.856;2023-05-07T10:38:41;97582.94;;;25.81
24201;BMP280;2801;50.972;7.856;2023-05-07T10:41:08;97590.41;;;25.57
24201;BMP280;2801;50.972;7.856;2023-05-07T10:43:44;97584.25;;;25.50
24201;BMP280;2801;50.972;7.856;2023-05-07T10:46:17;97585.88;;;25.47
24201;BMP280;2801;50.972;7.856;2023-05-07T10:51:32;97583.84;;;25.25
24201;BMP280;2801;50.972;7.856;2023-05-07T10:56:42;97587.25;;;25.09
24201;BMP280;2801;50.972;7.856;2023-05-07T11:02:04;97586.38;;;25.12
24201;BMP280;2801;50.972;7.856;2023-05-07T11:04:33;97578.22;;;25.09
24201;BMP280;2801;50.972;7.856;2023-05-07T11:15:11;97571.94;;;25.08
24201;BMP280;2801;50.972;7.856;2023-05-07T11:17:58;97572.56;;;25.19
24201;BMP280;2801;50.972;7.856;2023-05-07T11:20:54;97575.53;;;25.32
24201;BMP280;2801;50.972;7.856;2023-05-07T11:28:43;97576.41;;;24.99
24201;BMP280;2801;50.972;7.856;2023-05-07T11:31:10;97571.50;;;24.87
24201;BMP280;2801;50.972;7.856;2023-05-07T11:33:38;97581.91;;;24.72
24201;BMP280;2801;50.972;7.856;2023-05-07T11:36:08;97574.19;;;24.60
24201;BMP280;2801;50.972;7.856;2023-05-07T11:38:38;97580.94;;;24.52
24201;BMP280;2801;50.972;7.856;2023-05-07T11:41:05;97572.44;;;24.43
24201;BMP280;2801;50.972;7.856;2023-05-07T11:43:33;97574.72;;;24.48
24201;BMP280;2801;50.972;7.856;2023-05-07T11:46:11;97578.09;;;24.29
24201;BMP280;2801;50.972;7.856;2023-05-07T11:48:39;97575.50;;;24.18
24201;BMP280;2801;50.972;7.856;2023-05-07T11:51:07;97571.31;;;24.07
24201;BMP280;2801;50.972;7.856;2023-05-07T11:53:41;97569.28;;;24.11
24201;BMP280;2801;50.972;7.856;2023-05-07T11:56:17;97576.38;;;24.08
24201;BMP280;2801;50.972;7.856;2023-05-07T11:58:46;97563.88;;;24.07
24201;BMP280;2801;50.972;7.856;2023-05-07T12:01:15;97571.53;;;24.23
24201;BMP280;2801;50.972;7.856;2023-05-07T12:03:44;97577.34;;;24.28
24201;BMP280;2801;50.972;7.856;2023-05-07T12:06:17;97570.28;;;24.27
24201;BMP280;2801;50.972;7.856;2023-05-07T12:08:45;97570.00;;;24.18
24201;BMP280;2801;50.972;7.856;2023-05-07T12:11:18;97574.38;;;24.12
24201;BMP280;2801;50.972;7.856;2023-05-07T12:13:48;97569.22;;;24.18
24201;BMP280;2801;50.972;7.856;2023-05-07T12:16:15;97573.22;;;24.13
24201;BMP280;2801;50.972;7.856;2023-05-07T12:18:43;97579.63;;;24.00
24201;BMP280;2801;50.972;7.856;2023-05-07T12:21:11;97580.19;;;23.81
24201;BMP280;2801;50.972;7.856;2023-05-07T12:23:38;97588.94;;;23.62
24201;BMP280;2801;50.972;7.856;2023-05-07T12:26:05;97600.13;;;23.34
24201;BMP280;2801;50.972;7.856;2023-05-07T12:28:38;97591.69;;;23.11
24201;BMP280;2801;50.972;7.856;2023-05-07T12:31:07;97587.88;;;22.94
24201;BMP280;2801;50.972;7.856;2023-05-07T12:33:35;97587.91;;;22.91
24201;BMP280;2801;50.972;7.856;2023-05-07T12:36:06;97586.38;;;22.83
24201;BMP280;2801;50.972;7.856;2023-05-07T12:38:40;97585.69;;;22.68
24201;BMP280;2801;50.972;7.856;2023-05-07T12:41:11;97592.34;;;22.67
24201;BMP280;2801;50.972;7.856;2023-05-07T12:43:39;97595.06;;;22.67
24201;BMP280;2801;50.972;7.856;2023-05-07T12:46:07;97599.06;;;22.49
24201;BMP280;2801;50.972;7.856;2023-05-07T12:48:43;97600.22;;;22.41
24201;BMP280;2801;50.972;7.856;2023-05-07T12:51:10;97601.78;;;22.45
24201;BMP280;2801;50.972;7.856;2023-05-07T12:53:42;97609.59;;;22.40
24201;BMP280;2801;50.972;7.856;2023-05-07T12:56:09;97602.22;;;22.33
24201;BMP280;2801;50.972;7.856;2023-05-07T12:58:37;97610.41;;;22.33
24201;BMP280;2801;50.972;7.856;2023-05-07T13:01:07;97613.91;;;22.34
24201;BMP280;2801;50.972;7.856;2023-05-07T13:03:38;97613.59;;;22.18
24201;BMP280;2801;50.972;7.856;2023-05-07T13:06:08;97615.56;;;22.17
24201;BMP280;2801;50.972;7.856;2023-05-07T13:08:41;97621.00;;;22.14
24201;BMP280;2801;50.972;7.856;2023-05-07T13:11:12;97612.06;;;22.03
24201;BMP280;2801;50.972;7.856;2023-05-07T13:13:41;97627.28;;;21.93
24201;BMP280;2801;50.972;7.856;2023-05-07T13:16:10;97622.25;;;21.74
24201;BMP280;2801;50.972;7.856;2023-05-07T13:18:39;97632.34;;;21.63
24201;BMP280;2801;50.972;7.856;2023-05-07T13:21:07;97616.41;;;21.48
24201;BMP280;2801;50.972;7.856;2023-05-07T13:23:34;97615.59;;;21.33
24201;BMP280;2801;50.972;7.856;2023-05-07T13:26:01;97622.63;;;21.30
24201;BMP280;2801;50.972;7.856;2023-05-07T13:28:40;97628.81;;;21.20
24201;BMP280;2801;50.972;7.856;2023-05-07T13:31:08;97623.75;;;21.08
24201;BMP280;2801;50.972;7.856;2023-05-07T13:33:35;97632.72;;;21.02
24201;BMP280;2801;50.972;7.856;2023-05-07T13:36:03;97635.78;;;20.93
24201;BMP280;2801;50.972;7.856;2023-05-07T13:38:32;97644.75;;;20.97
24201;BMP280;2801;50.972;7.856;2023-05-07T13:40:59;97644.38;;;20.95
24201;BMP280;2801;50.972;7.856;2023-05-07T13:43:26;97636.22;;;20.95
24201;BMP280;2801;50.972;7.856;2023-05-07T13:45:53;97636.22;;;21.02
24201;BMP280;2801;50.972;7.856;2023-05-07T13:48:19;97638.94;;;20.99
24201;BMP280;2801;50.972;7.856;2023-05-07T13:50:46;97636.22;;;21.02
24201;BMP280;2801;50.972;7.856;2023-05-07T13:53:13;97645.16;;;20.92
24201;BMP280;2801;50.972;7.856;2023-05-07T13:55:42;97647.44;;;20.83
24201;BMP280;2801;50.972;7.856;2023-05-07T13:58:09;97645.84;;;20.82
24201;BMP280;2801;50.972;7.856;2023-05-07T14:00:36;97650.91;;;20.77
24201;BMP280;2801;50.972;7.856;2023-05-07T14:03:05;97644.63;;;20.66
24201;BMP280;2801;50.972;7.856;2023-05-07T14:05:32;97652.00;;;20.55
24201;BMP280;2801;50.972;7.856;2023-05-07T14:07:59;97644.94;;;20.43
24201;BMP280;2801;50.972;7.856;2023-05-07T14:10:26;97660.03;;;20.27
24201;BMP280;2801;50.972;7.856;2023-05-07T14:12:53;97651.81;;;20.20
24201;BMP280;2801;50.972;7.856;2023-05-07T14:15:21;97657.94;;;20.06
24201;BMP280;2801;50.972;7.856;2023-05-07T14:17:48;97654.28;;;19.81
24201;BMP280;2801;50.972;7.856;2023-05-07T14:20:15;97653.06;;;19.79
24201;BMP280;2801;50.972;7.856;2023-05-07T14:22:41;97658.50;;;19.72
24201;BMP280;2801;50.972;7.856;2023-05-07T14:25:09;97653.72;;;19.62
24201;BMP280;2801;50.972;7.856;2023-05-07T14:27:39;97656.56;;;19.76
24201;BMP280;2801;50.972;7.856;2023-05-07T14:30:07;97660.06;;;19.76
24201;BMP280;2801;50.972;7.856;2023-05-07T14:32:34;97654.56;;;19.69
24201;BMP280;2801;50.972;7.856;2023-05-07T14:35:01;97648.38;;;19.72
24201;BMP280;2801;50.972;7.856;2023-05-07T14:37:28;97660.09;;;19.80
24201;BMP280;2801;50.972;7.856;2023-05-07T14:39:55;97659.38;;;19.90
24201;BMP280;2801;50.972;7.856;2023-05-07T14:42:22;97659.03;;;19.95
24201;BMP280;2801;50.972;7.856;2023-05-07T14:44:49;97662.19;;;20.04
24201;BMP280;2801;50.972;7.856;2023-05-07T14:47:16;97650.25;;;20.15
24201;BMP280;2801;50.972;7.856;2023-05-07T14:49:45;97665.78;;;20.11